Time;durP1;ratioP1;P1;durP2;ratioP2;P2;SDS_P1;SDS_P2;PMS_P1;PMS_P2;Temp;Humidity;BMP_temperature;BMP_pressure;BME280_temperature;BME280_humidity;BME280_pressure;Samples;Min_cycle;Max_cycle;Signal;HPM_P1;HPM_P2
2023/08/18 00:00:50;;;;;;;4.93;1.80;;;;;;;18.87;69.54;99971.09;10458877;28;20041;-59
2023/08/18 00:05:52;;;;;;;2.60;1.50;;;;;;;18.84;69.33;99964.25;10476096;28;20048;-59
2023/08/18 00:10:54;;;;;;;2.88;1.63;;;;;;;18.80;69.36;99962.03;10476220;28;20048;-59
2023/08/18 00:15:56;;;;;;;34.08;3.50;;;;;;;18.56;69.37;99960.66;10476360;28;20127;-58
2023/08/18 00:20:58;;;;;;;2.13;1.38;;;;;;;18.48;69.99;99955.25;10476245;28;20050;-59
2023/08/18 00:26:00;;;;;;;3.75;1.20;;;;;;;18.58;69.92;99944.66;10476125;28;20054;-59
2023/08/18 00:31:02;;;;;;;2.10;1.50;;;;;;;18.64;69.73;99954.69;10476269;28;20055;-58
2023/08/18 00:36:04;;;;;;;5.95;1.83;;;;;;;18.65;69.68;99949.25;10475671;28;20040;-59
2023/08/18 00:41:06;;;;;;;2.33;1.35;;;;;;;18.46;69.60;99941.31;10458203;28;20193;-59
2023/08/18 00:46:09;;;;;;;2.13;1.35;;;;;;;18.50;69.89;99944.53;10473210;28;20049;-59
2023/08/18 00:51:13;;;;;;;41.35;2.20;;;;;;;18.43;69.69;99935.47;10456811;28;20506;-59
2023/08/18 00:56:15;;;;;;;3.13;1.30;;;;;;;18.19;70.11;99940.34;10473208;28;20051;-59
2023/08/18 01:01:18;;;;;;;1.13;1.00;;;;;;;18.16;70.52;99940.59;10494531;28;20040;-59
2023/08/18 01:06:20;;;;;;;2.05;1.27;;;;;;;18.21;70.50;99933.97;10483438;28;20079;-59
2023/08/18 01:11:33;;;;;;;2.70;1.30;;;;;;;18.35;70.60;99933.53;10461156;28;20228;-59
2023/08/18 01:16:38;;;;;;;2.40;1.60;;;;;;;18.46;70.21;99921.97;10447207;28;20106;-59
2023/08/18 01:21:41;;;;;;;2.30;1.40;;;;;;;18.49;70.15;99919.84;10480662;28;20056;-59
2023/08/18 01:26:43;;;;;;;2.60;1.75;;;;;;;18.39;70.08;99921.69;10461269;28;20059;-59
2023/08/18 01:31:48;;;;;;;3.00;1.90;;;;;;;18.36;70.53;99921.94;10480439;28;20424;-59
2023/08/18 01:36:53;;;;;;;2.75;1.50;;;;;;;18.34;70.60;99920.44;10494982;28;20110;-59
2023/08/18 01:41:55;;;;;;;8.52;2.17;;;;;;;18.39;70.38;99920.84;10497316;28;20090;-59
2023/08/18 01:46:57;;;;;;;2.67;1.60;;;;;;;18.40;70.38;99910.09;10479739;28;20068;-59
2023/08/18 01:51:59;;;;;;;4.80;2.00;;;;;;;18.44;70.09;99906.19;10481607;28;20068;-59
2023/08/18 01:57:02;;;;;;;4.82;1.85;;;;;;;18.41;70.09;99905.66;10481216;28;20500;-59
2023/08/18 02:02:04;;;;;;;3.53;1.90;;;;;;;18.39;70.28;99902.31;10462195;28;20037;-59
2023/08/18 02:07:06;;;;;;;3.38;2.00;;;;;;;18.32;70.53;99898.56;10480843;28;20087;-59
2023/08/18 02:12:09;;;;;;;3.05;1.80;;;;;;;18.13;71.20;99901.19;10478184;28;20041;-59
2023/08/18 02:17:11;;;;;;;5.93;2.30;;;;;;;18.20;70.75;99887.28;10480343;28;20558;-59
2023/08/18 02:22:13;;;;;;;4.93;1.70;;;;;;;18.25;70.90;99886.88;10480238;28;20208;-59
2023/08/18 02:27:15;;;;;;;5.15;1.67;;;;;;;18.10;71.00;99889.06;10461864;28;20040;-59
2023/08/18 02:32:18;;;;;;;3.40;1.90;;;;;;;18.01;71.15;99886.44;10444962;28;20048;-59
2023/08/18 02:37:20;;;;;;;5.93;2.53;;;;;;;17.97;71.12;99883.25;10460689;28;20405;-59
2023/08/18 02:42:22;;;;;;;3.92;1.80;;;;;;;17.96;71.09;99875.41;10479549;28;20374;-58
2023/08/18 02:47:25;;;;;;;3.42;2.05;;;;;;;17.97;71.09;99874.47;10461021;28;20131;-59
2023/08/18 02:52:27;;;;;;;5.53;2.20;;;;;;;18.05;70.79;99883.38;10461264;28;20045;-59
2023/08/18 02:57:29;;;;;;;20.98;3.30;;;;;;;18.16;70.88;99875.28;10460562;28;20049;-58
2023/08/18 03:02:32;;;;;;;3.78;1.90;;;;;;;18.28;70.61;99879.47;10477220;28;20040;-59
2023/08/18 03:07:34;;;;;;;3.80;2.00;;;;;;;18.41;70.48;99884.47;10444188;28;20052;-59
2023/08/18 03:12:36;;;;;;;4.55;2.20;;;;;;;18.48;70.73;99881.09;10459923;28;20056;-59
2023/08/18 03:17:38;;;;;;;3.95;2.10;;;;;;;18.62;70.62;99883.31;10478126;28;20048;-59
2023/08/18 03:22:41;;;;;;;4.00;1.70;;;;;;;18.75;70.48;99890.13;10493175;28;20395;-59
2023/08/18 03:27:43;;;;;;;3.55;1.75;;;;;;;18.77;70.45;99891.59;10477849;28;20697;-59
2023/08/18 03:32:47;;;;;;;4.63;2.40;;;;;;;18.76;70.31;99887.31;10458693;28;20036;-59
2023/08/18 03:37:49;;;;;;;7.25;2.40;;;;;;;18.86;70.64;99893.41;10477669;28;20790;-59
2023/08/18 03:42:52;;;;;;;12.95;3.15;;;;;;;18.81;70.44;99892.19;10477740;28;20554;-59
2023/08/18 03:47:56;;;;;;;5.90;2.60;;;;;;;18.79;70.85;99891.50;10476596;28;20086;-59
2023/08/18 03:52:58;;;;;;;4.55;2.50;;;;;;;18.75;71.04;99882.16;10458461;28;20507;-59
2023/08/18 03:58:00;;;;;;;7.07;2.25;;;;;;;18.80;70.68;99879.91;10475158;28;20409;-59
2023/08/18 04:03:03;;;;;;;6.60;2.22;;;;;;;18.88;70.64;99882.66;10458554;28;20127;-59
2023/08/18 04:08:05;;;;;;;3.65;2.22;;;;;;;18.85;70.65;99882.97;10458514;28;20055;-59
2023/08/18 04:13:07;;;;;;;5.05;2.33;;;;;;;18.89;70.80;99885.16;10475000;28;20071;-59
2023/08/18 04:18:10;;;;;;;4.15;2.47;;;;;;;18.89;70.71;99881.69;10458514;28;20060;-59
2023/08/18 04:23:12;;;;;;;4.45;2.40;;;;;;;18.91;70.65;99892.97;10457726;28;20055;-59
2023/08/18 04:28:14;;;;;;;4.57;2.80;;;;;;;18.84;71.09;99891.88;10475856;28;20430;-59
2023/08/18 04:33:16;;;;;;;6.25;3.00;;;;;;;18.87;71.27;99892.41;10475461;28;20552;-59
2023/08/18 04:38:18;;;;;;;5.13;2.70;;;;;;;18.93;71.17;99891.03;10476112;28;20047;-59
2023/08/18 04:43:21;;;;;;;6.30;2.33;;;;;;;18.97;70.93;99897.69;10441562;28;20068;-60
2023/08/18 04:48:24;;;;;;;7.85;3.28;;;;;;;18.78;71.49;99895.94;10441172;28;20141;-59
2023/08/18 04:53:26;;;;;;;7.40;2.90;;;;;;;18.85;71.32;99894.38;10457537;28;20033;-59
2023/08/18 04:58:28;;;;;;;6.13;2.95;;;;;;;19.12;70.85;99906.84;10490733;28;20795;-59
2023/08/18 05:03:33;;;;;;;5.13;3.10;;;;;;;19.13;70.67;99893.47;10456332;28;20070;-59
2023/08/18 05:08:37;;;;;;;6.18;3.42;;;;;;;19.08;70.98;99901.03;10456806;28;20045;-59
2023/08/18 05:13:42;;;;;;;5.10;3.00;;;;;;;19.19;70.68;99902.66;10475046;28;20114;-59
2023/08/18 05:18:44;;;;;;;6.68;3.13;;;;;;;19.26;70.63;99893.09;10474733;28;20053;-59
2023/08/18 05:23:46;;;;;;;5.25;3.22;;;;;;;19.34;70.33;99902.00;10473921;28;20080;-59
2023/08/18 05:28:48;;;;;;;7.95;3.25;;;;;;;19.31;70.13;99902.31;10475198;28;20058;-59
2023/08/18 05:33:50;;;;;;;5.43;3.28;;;;;;;19.21;70.29;99909.47;10474788;28;20041;-59
2023/08/18 05:38:52;;;;;;;5.53;3.35;;;;;;;19.19;70.61;99922.06;10474471;28;20055;-59
2023/08/18 05:43:54;;;;;;;7.55;3.35;;;;;;;19.28;70.22;99923.81;10456002;28;20039;-58
2023/08/18 05:48:56;;;;;;;9.13;3.63;;;;;;;19.38;70.29;99921.94;10481701;28;20131;-59
2023/08/18 05:53:58;;;;;;;6.10;3.67;;;;;;;19.39;70.01;99931.56;10481618;28;20051;-59
2023/08/18 05:59:00;;;;;;;5.47;3.58;;;;;;;19.36;70.26;99928.38;10482340;28;20112;-58
2023/08/18 06:04:02;;;;;;;6.90;3.35;;;;;;;19.58;70.06;99932.44;10447137;28;20029;-59
2023/08/18 06:09:04;;;;;;;11.13;4.00;;;;;;;19.59;69.91;99929.66;10481150;28;20394;-59
2023/08/18 06:14:06;;;;;;;6.88;3.60;;;;;;;19.70;69.65;99936.56;10462482;28;20493;-59
2023/08/18 06:19:08;;;;;;;6.63;3.58;;;;;;;19.69;69.55;99933.06;10481673;28;20583;-59
2023/08/18 06:24:10;;;;;;;6.82;3.60;;;;;;;19.82;69.21;99944.19;10461427;28;20547;-59
2023/08/18 06:29:12;;;;;;;8.18;3.67;;;;;;;19.76;69.25;99951.88;10480425;28;20162;-60
2023/08/18 06:34:14;;;;;;;7.78;3.70;;;;;;;19.68;69.47;99950.00;10461831;28;20734;-59
2023/08/18 06:39:16;;;;;;;7.10;4.07;;;;;;;19.69;69.42;99949.00;10479710;28;20237;-59
2023/08/18 06:44:19;;;;;;;7.30;3.90;;;;;;;19.82;68.94;99953.97;10479505;28;20435;-59
2023/08/18 06:49:21;;;;;;;7.40;3.95;;;;;;;19.97;68.69;99952.50;10479580;28;20044;-59
2023/08/18 06:54:23;;;;;;;6.30;3.75;;;;;;;20.01;68.47;99953.84;10478881;28;20132;-59
2023/08/18 06:59:26;;;;;;;7.18;3.90;;;;;;;20.15;68.26;99950.66;10478422;28;20094;-59
2023/08/18 07:04:28;;;;;;;9.85;3.83;;;;;;;20.17;68.29;99954.81;10478807;28;20036;-59
2023/08/18 07:09:30;;;;;;;6.70;3.72;;;;;;;20.15;68.13;99951.47;10460249;28;20149;-59
2023/08/18 07:14:32;;;;;;;5.20;3.30;;;;;;;20.33;67.82;99954.16;10478250;28;20277;-59
2023/08/18 07:19:34;;;;;;;5.60;3.40;;;;;;;20.42;67.21;99950.56;10478179;28;20050;-59
2023/08/18 07:24:36;;;;;;;6.00;3.75;;;;;;;20.69;66.83;99949.63;10477301;28;20048;-59
2023/08/18 07:29:38;;;;;;;5.85;3.20;;;;;;;20.97;66.36;99957.28;10478034;28;20059;-59
2023/08/18 07:34:41;;;;;;;6.30;3.55;;;;;;;21.07;65.92;99957.19;10477645;28;20036;-59
2023/08/18 07:39:43;;;;;;;5.63;3.20;;;;;;;21.20;65.69;99964.72;10478199;28;20137;-60
2023/08/18 07:44:45;;;;;;;4.65;2.65;;;;;;;21.20;65.50;99954.09;10477387;28;20479;-60
2023/08/18 07:49:47;;;;;;;7.53;3.47;;;;;;;21.41;64.89;99957.22;10492397;28;20040;-59
2023/08/18 07:54:50;;;;;;;6.13;3.00;;;;;;;21.65;64.45;99949.31;10476794;28;20360;-59
2023/08/18 07:59:52;;;;;;;6.15;3.10;;;;;;;21.99;63.92;99958.06;10476501;28;20427;-60
2023/08/18 08:04:54;;;;;;;5.10;3.03;;;;;;;22.20;63.22;99950.47;10476463;28;20101;-60
2023/08/18 08:09:57;;;;;;;4.82;3.03;;;;;;;22.47;62.63;99944.00;10475374;28;20140;-60
2023/08/18 08:14:59;;;;;;;5.03;3.05;;;;;;;22.37;62.13;99946.00;10476637;28;20359;-59
2023/08/18 08:20:07;;;;;;;5.07;2.60;;;;;;;22.74;62.04;99946.31;10476791;28;20056;-60
2023/08/18 08:25:10;;;;;;;4.35;2.53;;;;;;;23.24;60.71;99938.88;10475414;28;20052;-60
2023/08/18 08:30:13;;;;;;;4.85;2.58;;;;;;;23.43;59.97;99940.31;10475324;28;20300;-59
2023/08/18 08:35:35;;;;;;;4.25;2.30;;;;;;;23.94;59.28;99936.22;10475081;28;20409;-60
2023/08/18 08:40:39;;;;;;;5.30;2.70;;;;;;;24.02;57.99;99931.63;10457056;28;20071;-59
2023/08/18 08:45:42;;;;;;;4.80;2.55;;;;;;;24.34;57.82;99933.25;10457159;28;20080;-59
2023/08/18 08:50:49;;;;;;;3.90;2.70;;;;;;;25.10;56.39;99933.06;10457465;28;20052;-59
2023/08/18 08:55:53;;;;;;;5.25;2.75;;;;;;;24.99;56.05;99931.66;10475729;28;20134;-59
2023/08/18 09:00:56;;;;;;;5.13;2.65;;;;;;;25.17;55.89;99930.44;10475781;28;20032;-59
2023/08/18 09:05:58;;;;;;;3.97;2.40;;;;;;;25.60;54.97;99925.09;10474793;28;20489;-59
2023/08/18 09:11:00;;;;;;;4.40;2.40;;;;;;;26.33;52.58;99921.31;10456676;28;20429;-59
2023/08/18 09:16:06;;;;;;;5.20;2.58;;;;;;;26.63;52.35;99912.94;10456274;28;20041;-59
2023/08/18 09:21:09;;;;;;;5.63;3.05;;;;;;;26.87;51.83;99906.31;10462519;28;20455;-60
2023/08/18 09:26:11;;;;;;;5.25;2.40;;;;;;;26.53;51.93;99904.38;10482905;28;20139;-59
2023/08/18 09:31:13;;;;;;;6.22;2.50;;;;;;;26.78;51.70;99903.97;10482664;28;20390;-59
2023/08/18 09:36:15;;;;;;;5.53;2.63;;;;;;;26.93;51.10;99902.00;10482498;28;20512;-60
2023/08/18 09:41:17;;;;;;;5.22;2.67;;;;;;;27.01;50.40;99894.63;10464793;28;20143;-59
2023/08/18 09:46:25;;;;;;;4.57;2.22;;;;;;;26.91;50.40;99893.31;10482263;28;20504;-60
2023/08/18 09:51:28;;;;;;;5.47;2.42;;;;;;;27.43;50.17;99894.44;10481670;28;20044;-60
2023/08/18 09:56:35;;;;;;;4.57;2.53;;;;;;;27.35;49.16;99889.25;10481393;28;20048;-60
2023/08/18 10:01:42;;;;;;;6.20;2.50;;;;;;;27.89;49.45;99888.41;10481269;28;20063;-58
2023/08/18 10:06:45;;;;;;;5.57;2.40;;;;;;;27.98;48.55;99879.09;10481545;28;20055;-59
2023/08/18 10:11:47;;;;;;;3.70;2.22;;;;;;;28.04;48.39;99876.41;10463387;28;20143;-60
2023/08/18 10:16:56;;;;;;;3.83;2.40;;;;;;;27.88;49.51;99867.91;10481219;28;20040;-58
2023/08/18 10:21:58;;;;;;;5.72;2.42;;;;;;;28.18;49.40;99863.78;10480133;28;20057;-59
2023/08/18 10:27:00;;;;;;;4.05;1.95;;;;;;;28.41;48.65;99863.41;10479783;28;20538;-59
2023/08/18 10:32:10;;;;;;;5.43;2.50;;;;;;;28.43;47.84;99855.97;10479638;28;20127;-59
2023/08/18 10:37:14;;;;;;;5.63;2.22;;;;;;;28.32;48.22;99851.22;10462528;28;20562;-60
2023/08/18 10:42:16;;;;;;;4.30;2.40;;;;;;;28.24;48.37;99844.97;10477231;28;20663;-60
2023/08/18 10:47:29;;;;;;;3.58;2.00;;;;;;;28.38;47.80;99848.50;10480130;28;20052;-60
2023/08/18 10:52:32;;;;;;;5.03;2.38;;;;;;;27.94;48.39;99840.22;10478957;28;20048;-60
2023/08/18 10:57:34;;;;;;;3.80;2.30;;;;;;;27.69;49.35;99828.38;10478861;28;20567;-60
2023/08/18 11:02:37;;;;;;;4.10;2.10;;;;;;;27.41;49.25;99831.19;10460264;28;20047;-60
2023/08/18 11:07:40;;;;;;;4.80;2.30;;;;;;;27.35;49.35;99830.16;10478896;28;20515;-60
2023/08/18 11:12:43;;;;;;;4.80;2.90;;;;;;;27.49;49.09;99821.09;10479106;28;20105;-60
2023/08/18 11:17:46;;;;;;;3.28;2.10;;;;;;;27.60;49.64;99819.69;10478608;28;20049;-60
2023/08/18 11:22:52;;;;;;;5.93;2.25;;;;;;;27.65;49.21;99805.63;10460117;28;20413;-60
2023/08/18 11:27:55;;;;;;;3.55;2.15;;;;;;;27.85;49.75;99806.50;10477804;28;20132;-60
2023/08/18 11:32:57;;;;;;;4.35;2.15;;;;;;;28.04;49.02;99787.69;10459473;28;20726;-60
2023/08/18 11:37:59;;;;;;;4.90;2.05;;;;;;;28.31;48.56;99791.22;10477691;28;20043;-60
2023/08/18 11:43:09;;;;;;;3.80;2.00;;;;;;;28.21;47.68;99780.03;10473525;28;20043;-60
2023/08/18 11:48:13;;;;;;;4.60;1.95;;;;;;;28.26;48.20;99778.34;10477411;28;20132;-60
2023/08/18 11:53:23;;;;;;;6.40;2.30;;;;;;;28.48;48.10;99781.69;10477237;28;20097;-60
2023/08/18 11:58:25;;;;;;;3.63;2.00;;;;;;;28.67;47.91;99783.47;10477266;28;20044;-60
2023/08/18 12:03:28;;;;;;;4.10;2.03;;;;;;;28.69;47.82;99773.31;10476684;28;20043;-60
2023/08/18 12:08:31;;;;;;;4.50;1.90;;;;;;;28.61;46.72;99765.47;10476644;28;20782;-60
2023/08/18 12:13:33;;;;;;;4.68;2.10;;;;;;;28.81;46.50;99766.22;10475985;28;20397;-60
2023/08/18 12:18:35;;;;;;;5.05;2.30;;;;;;;28.93;47.26;99756.47;10458093;28;20051;-60
2023/08/18 12:23:37;;;;;;;4.60;1.75;;;;;;;29.03;46.57;99754.16;10476254;28;20049;-60
2023/08/18 12:28:39;;;;;;;3.13;1.80;;;;;;;29.06;45.41;99755.59;10474225;28;20075;-60
2023/08/18 12:33:41;;;;;;;4.38;2.03;;;;;;;29.16;45.23;99753.25;10475938;28;20337;-60
2023/08/18 12:38:43;;;;;;;4.90;1.80;;;;;;;29.29;44.54;99741.59;10476905;28;20323;-58
2023/08/18 12:43:45;;;;;;;7.32;2.10;;;;;;;29.51;43.39;99748.31;10470587;28;20127;-58
2023/08/18 12:48:47;;;;;;;6.20;2.00;;;;;;;29.64;42.63;99751.72;10475483;28;20086;-59
2023/08/18 12:53:49;;;;;;;3.08;1.80;;;;;;;29.68;41.52;99749.44;10476900;28;20106;-58
2023/08/18 12:58:51;;;;;;;6.90;1.80;;;;;;;29.71;40.89;99751.69;10482591;28;20557;-59
2023/08/18 13:03:53;;;;;;;3.35;1.60;;;;;;;29.94;41.32;99746.53;10463195;28;20079;-58
2023/08/18 13:08:55;;;;;;;5.22;1.77;;;;;;;29.93;41.21;99752.16;10483247;28;20493;-59
2023/08/18 13:13:57;;;;;;;4.18;1.90;;;;;;;29.94;39.98;99761.91;10465105;28;20488;-59
2023/08/18 13:19:00;;;;;;;4.25;1.65;;;;;;;29.95;40.82;99750.88;10483053;28;20131;-59
2023/08/18 13:24:02;;;;;;;7.18;1.70;;;;;;;30.02;40.33;99743.56;10481984;28;20133;-59
2023/08/18 13:29:08;;;;;;;3.35;1.70;;;;;;;30.05;40.75;99743.09;10482425;28;20075;-59
2023/08/18 13:34:10;;;;;;;4.10;1.90;;;;;;;30.08;39.87;99742.69;10482399;28;20369;-60
2023/08/18 13:39:12;;;;;;;4.25;1.60;;;;;;;30.13;40.34;99739.31;10482664;28;20063;-59
2023/08/18 13:44:14;;;;;;;3.42;1.90;;;;;;;30.03;39.27;99739.00;10481941;28;20049;-59
2023/08/18 13:49:16;;;;;;;4.55;1.77;;;;;;;30.03;39.68;99734.41;10481658;28;20522;-61
2023/08/18 13:54:18;;;;;;;3.58;1.55;;;;;;;30.17;39.54;99737.84;10481597;28;20398;-59
2023/08/18 13:59:20;;;;;;;5.10;1.70;;;;;;;30.27;39.35;99730.03;10481453;28;20048;-59
2023/08/18 14:04:22;;;;;;;4.40;1.80;;;;;;;30.31;39.41;99732.09;10480590;28;20378;-60
2023/08/18 14:09:25;;;;;;;4.28;2.10;;;;;;;30.30;37.85;99727.72;10480795;28;20048;-60
2023/08/18 14:14:27;;;;;;;4.88;1.67;;;;;;;30.35;38.60;99727.88;10480540;28;20048;-60
2023/08/18 14:19:29;;;;;;;3.97;1.95;;;;;;;30.43;38.44;99724.06;10480894;28;20500;-60
2023/08/18 14:24:31;;;;;;;3.50;1.60;;;;;;;30.49;38.10;99721.31;10480599;28;20504;-60
2023/08/18 14:29:33;;;;;;;2.50;1.30;;;;;;;30.69;37.92;99721.06;10495675;28;20142;-60
2023/08/18 14:34:35;;;;;;;5.38;1.50;;;;;;;30.84;38.28;99708.00;10479725;28;20443;-60
2023/08/18 14:39:37;;;;;;;6.93;1.80;;;;;;;30.74;37.47;99707.72;10479565;28;20132;-60
2023/08/18 14:44:39;;;;;;;3.97;1.42;;;;;;;30.82;37.60;99707.41;10479626;28;20528;-60
2023/08/18 14:49:41;;;;;;;5.75;1.90;;;;;;;30.79;37.63;99696.22;10479008;28;20503;-60
2023/08/18 14:54:43;;;;;;;3.70;1.77;;;;;;;30.74;37.12;99693.41;10479286;28;20135;-60
2023/08/18 14:59:45;;;;;;;6.50;1.65;;;;;;;30.80;37.67;99692.47;10461427;28;20139;-60
2023/08/18 15:04:47;;;;;;;2.92;1.60;;;;;;;30.79;37.12;99680.03;10478761;28;20131;-60
2023/08/18 15:09:49;;;;;;;3.97;1.85;;;;;;;30.76;37.43;99692.13;10478992;28;20052;-60
2023/08/18 15:14:51;;;;;;;6.55;1.60;;;;;;;30.65;37.69;99691.00;10478151;28;20079;-60
2023/08/18 15:19:53;;;;;;;3.45;1.58;;;;;;;30.74;38.10;99688.00;10460653;28;20049;-60
2023/08/18 15:24:55;;;;;;;4.00;1.40;;;;;;;30.92;37.43;99682.56;10478084;28;20106;-60
2023/08/18 15:29:57;;;;;;;3.67;1.65;;;;;;;30.92;37.13;99682.56;10460152;28;20338;-60
2023/08/18 15:35:00;;;;;;;2.30;1.27;;;;;;;30.86;37.19;99672.66;10477890;28;20801;-61
2023/08/18 15:40:03;;;;;;;3.83;1.55;;;;;;;30.96;37.48;99687.28;10477239;28;20464;-60
2023/08/18 15:45:05;;;;;;;3.72;1.50;;;;;;;30.83;37.90;99687.44;10477271;28;20048;-61
2023/08/18 15:50:08;;;;;;;4.78;1.40;;;;;;;30.92;37.67;99677.16;10477192;28;20105;-60
2023/08/18 15:55:10;;;;;;;4.25;2.03;;;;;;;30.81;37.44;99673.34;10458526;28;20139;-59
2023/08/18 16:00:12;;;;;;;9.27;2.03;;;;;;;30.98;36.96;99678.97;10477061;28;20140;-60
2023/08/18 16:05:15;;;;;;;4.30;1.75;;;;;;;30.89;37.39;99673.03;10476418;28;20216;-59
2023/08/18 16:10:17;;;;;;;5.65;1.40;;;;;;;30.90;37.46;99668.47;10476897;28;20131;-60
2023/08/18 16:15:19;;;;;;;5.95;1.70;;;;;;;30.70;37.42;99668.75;10474178;28;20173;-60
2023/08/18 16:20:30;;;;;;;3.65;1.60;;;;;;;30.78;37.65;99678.38;10475594;28;20053;-60
2023/08/18 16:25:32;;;;;;;3.55;1.35;;;;;;;30.75;37.60;99676.13;10475652;28;20053;-60
2023/08/18 16:30:34;;;;;;;3.83;1.52;;;;;;;30.52;37.65;99684.94;10475102;28;20661;-60
2023/08/18 16:35:36;;;;;;;3.53;1.40;;;;;;;30.45;37.81;99682.34;10475626;28;20394;-59
2023/08/18 16:40:38;;;;;;;4.85;1.38;;;;;;;30.31;37.85;99680.81;10475901;28;20139;-60
2023/08/18 16:45:41;;;;;;;2.42;1.40;;;;;;;30.28;38.94;99678.56;10457947;28;20052;-59
2023/08/18 16:50:43;;;;;;;7.95;1.90;;;;;;;30.27;38.24;99674.22;10475757;28;20536;-59
2023/08/18 16:55:46;;;;;;;2.40;1.50;;;;;;;30.17;38.58;99679.28;10475074;28;20083;-60
2023/08/18 17:00:48;;;;;;;4.85;1.35;;;;;;;30.05;39.16;99683.78;10475438;28;20056;-60
2023/08/18 17:05:50;;;;;;;7.38;1.40;;;;;;;29.99;39.41;99663.09;10475301;28;20044;-59
2023/08/18 17:10:54;;;;;;;4.03;1.55;;;;;;;29.94;39.59;99676.44;10475768;28;20045;-60
2023/08/18 17:15:56;;;;;;;3.72;1.50;;;;;;;29.83;39.91;99671.72;10475087;28;20044;-59
2023/08/18 17:20:58;;;;;;;3.40;1.52;;;;;;;29.63;40.60;99679.19;10490612;28;20043;-60
2023/08/18 17:26:01;;;;;;;5.45;1.80;;;;;;;29.48;41.43;99670.63;10456766;28;20424;-61
2023/08/18 17:31:08;;;;;;;5.05;1.70;;;;;;;29.30;42.43;99671.31;10490013;28;20453;-59
2023/08/18 17:36:10;;;;;;;3.63;1.33;;;;;;;29.02;42.76;99665.50;10474485;28;20045;-60
2023/08/18 17:41:12;;;;;;;4.05;1.60;;;;;;;28.74;43.53;99671.25;10477771;28;20489;-60
2023/08/18 17:46:14;;;;;;;3.65;1.50;;;;;;;28.43;44.56;99671.16;10482298;28;20132;-59
2023/08/18 17:51:16;;;;;;;3.80;1.83;;;;;;;28.17;45.35;99669.38;10481665;28;20052;-59
2023/08/18 17:56:18;;;;;;;6.85;1.90;;;;;;;27.91;46.62;99664.03;10481307;28;20080;-59
2023/08/18 18:01:20;;;;;;;3.42;1.50;;;;;;;27.64;47.17;99659.72;10482046;28;20064;-59
2023/08/18 18:06:23;;;;;;;4.20;1.58;;;;;;;27.31;47.47;99667.75;10481448;28;20552;-59
2023/08/18 18:11:25;;;;;;;3.17;1.52;;;;;;;26.95;48.15;99675.31;10480854;28;20087;-59
2023/08/18 18:16:27;;;;;;;5.07;1.63;;;;;;;26.67;48.57;99679.97;10481018;28;20051;-61
2023/08/18 18:21:29;;;;;;;2.42;1.50;;;;;;;26.54;49.03;99677.22;10480985;28;20059;-60
2023/08/18 18:26:31;;;;;;;6.90;1.80;;;;;;;26.33;49.49;99680.81;10480700;28;20419;-60
2023/08/18 18:31:34;;;;;;;3.00;1.60;;;;;;;26.13;50.41;99684.44;10480928;28;20139;-60
2023/08/18 18:36:36;;;;;;;3.45;1.35;;;;;;;25.89;51.33;99686.50;10479877;28;20048;-59
2023/08/18 18:41:38;;;;;;;4.95;1.80;;;;;;;25.66;52.26;99682.41;10494752;28;20499;-59
2023/08/18 18:46:43;;;;;;;6.10;1.88;;;;;;;25.39;52.98;99692.06;10479467;28;20058;-59
2023/08/18 18:51:45;;;;;;;5.47;1.60;;;;;;;24.91;53.79;99701.66;10492273;28;20496;-59
2023/08/18 18:56:47;;;;;;;4.00;1.92;;;;;;;24.80;54.57;99720.03;10476021;28;20132;-60
2023/08/18 19:01:49;;;;;;;6.32;1.83;;;;;;;24.72;55.02;99715.63;10477326;28;20051;-60
2023/08/18 19:06:52;;;;;;;5.20;1.50;;;;;;;24.56;55.59;99718.47;10493587;28;20032;-59
2023/08/18 19:11:54;;;;;;;7.97;2.10;;;;;;;24.39;56.11;99708.19;10478697;28;20447;-59
2023/08/18 19:16:57;;;;;;;4.50;2.20;;;;;;;24.20;56.64;99717.59;10477315;28;20102;-60
2023/08/18 19:21:59;;;;;;;9.00;2.50;;;;;;;23.86;57.44;99723.38;10477939;28;20530;-60
2023/08/18 19:27:01;;;;;;;5.05;1.88;;;;;;;23.73;57.75;99731.22;10493169;28;20404;-59
2023/08/18 19:32:08;;;;;;;5.47;2.00;;;;;;;23.71;57.74;99730.56;10477998;28;20439;-60
2023/08/18 19:37:10;;;;;;;8.48;1.88;;;;;;;23.45;58.18;99730.91;10476969;28;20416;-60
2023/08/18 19:42:15;;;;;;;5.07;1.63;;;;;;;23.42;58.59;99728.63;10492231;28;20502;-60
2023/08/18 19:47:17;;;;;;;3.97;1.90;;;;;;;23.42;58.83;99728.63;10476998;28;20131;-60
2023/08/18 19:52:19;;;;;;;3.00;1.60;;;;;;;23.32;59.11;99729.84;10476950;28;20041;-60
2023/08/18 19:57:26;;;;;;;4.47;1.70;;;;;;;23.24;59.39;99727.22;10477159;28;20389;-60
2023/08/18 20:02:29;;;;;;;6.88;1.90;;;;;;;23.16;59.47;99727.28;10476480;28;20548;-60
2023/08/18 20:07:35;;;;;;;6.55;1.95;;;;;;;22.78;60.11;99733.50;10476477;28;20607;-60
2023/08/18 20:12:37;;;;;;;5.72;1.60;;;;;;;22.74;60.34;99727.66;10458529;28;20063;-60
2023/08/18 20:17:39;;;;;;;6.28;2.17;;;;;;;22.72;60.58;99729.66;10476200;28;20044;-60
2023/08/18 20:22:42;;;;;;;5.00;2.20;;;;;;;22.69;60.79;99725.53;10476174;28;20063;-59
2023/08/18 20:27:44;;;;;;;6.47;2.55;;;;;;;22.39;61.40;99730.81;10476657;28;20127;-60
2023/08/18 20:32:46;;;;;;;3.92;1.77;;;;;;;22.43;61.54;99735.59;10476043;28;20044;-60
2023/08/18 20:37:48;;;;;;;4.72;1.95;;;;;;;22.44;61.64;99739.94;10475970;28;20052;-58
2023/08/18 20:42:50;;;;;;;7.35;2.35;;;;;;;22.34;61.61;99752.63;10475776;28;20471;-59
2023/08/18 20:47:53;;;;;;;3.83;1.83;;;;;;;22.29;61.94;99751.50;10476203;28;20045;-59
2023/08/18 20:52:56;;;;;;;4.97;1.73;;;;;;;22.23;62.08;99746.84;10457511;28;20058;-59
2023/08/18 20:57:58;;;;;;;7.78;2.38;;;;;;;22.09;62.00;99761.66;10491279;28;20135;-59
2023/08/18 21:03:00;;;;;;;7.03;2.38;;;;;;;21.96;62.30;99753.34;10474692;28;20424;-58
2023/08/18 21:08:02;;;;;;;5.30;1.90;;;;;;;21.97;62.33;99749.66;10474958;28;20060;-59
2023/08/18 21:13:04;;;;;;;9.70;2.45;;;;;;;21.95;62.52;99749.00;10455738;28;20049;-59
2023/08/18 21:18:06;;;;;;;7.85;2.20;;;;;;;21.83;62.71;99761.00;10481924;28;20139;-59
2023/08/18 21:23:09;;;;;;;3.38;1.90;;;;;;;21.56;63.06;99767.50;10482670;28;20051;-59
2023/08/18 21:28:11;;;;;;;4.85;1.70;;;;;;;21.47;63.68;99762.34;10482834;28;20453;-60
2023/08/18 21:33:13;;;;;;;3.88;2.00;;;;;;;21.51;63.27;99763.66;10482301;28;20135;-60
2023/08/18 21:38:15;;;;;;;8.32;1.80;;;;;;;21.52;63.33;99767.97;10483616;28;20044;-59
2023/08/18 21:43:18;;;;;;;5.07;1.90;;;;;;;21.42;63.76;99765.47;10464124;28;20309;-60
2023/08/18 21:48:20;;;;;;;5.85;2.00;;;;;;;21.40;63.77;99769.28;10482036;28;20436;-59
2023/08/18 21:53:22;;;;;;;4.15;1.90;;;;;;;21.40;63.60;99769.28;10481236;28;20493;-60
2023/08/18 21:58:24;;;;;;;4.60;1.83;;;;;;;21.38;63.72;99774.78;10482236;28;20150;-60
2023/08/18 22:03:26;;;;;;;5.47;1.80;;;;;;;21.31;63.89;99781.75;10481670;28;20515;-59
2023/08/18 22:08:29;;;;;;;3.67;1.95;;;;;;;21.25;63.86;99776.25;10481636;28;20044;-59
2023/08/18 22:13:31;;;;;;;5.45;1.92;;;;;;;21.24;63.79;99779.88;10480918;28;20507;-60
2023/08/18 22:18:34;;;;;;;7.50;2.22;;;;;;;21.12;63.85;99789.16;10481020;28;20488;-60
2023/08/18 22:23:37;;;;;;;6.05;1.90;;;;;;;21.07;64.08;99779.84;10480465;28;20064;-60
2023/08/18 22:28:39;;;;;;;6.32;2.03;;;;;;;21.07;64.08;99771.88;10461005;28;20472;-59
2023/08/18 22:33:41;;;;;;;2.88;1.58;;;;;;;21.05;64.24;99767.69;10480723;28;20133;-60
2023/08/18 22:38:44;;;;;;;6.88;2.00;;;;;;;20.97;64.19;99767.69;10480241;28;20193;-60
2023/08/18 22:43:46;;;;;;;5.60;2.03;;;;;;;20.93;64.38;99766.34;10480224;28;20374;-59
2023/08/18 22:48:48;;;;;;;5.10;2.22;;;;;;;20.85;64.36;99766.31;10479781;28;20133;-60
2023/08/18 22:53:52;;;;;;;6.18;2.00;;;;;;;20.66;64.62;99748.78;10460652;28;20053;-59
2023/08/18 22:58:54;;;;;;;5.55;2.53;;;;;;;20.29;65.43;99748.28;10479326;28;20040;-60
2023/08/18 23:03:56;;;;;;;4.43;2.08;;;;;;;20.29;65.64;99757.06;10460767;28;20106;-60
2023/08/18 23:08:58;;;;;;;5.00;2.00;;;;;;;20.36;65.34;99764.41;10479229;28;20028;-60
2023/08/18 23:14:00;;;;;;;6.68;2.67;;;;;;;20.32;65.64;99761.22;10478945;28;20044;-60
2023/08/18 23:19:03;;;;;;;6.97;2.10;;;;;;;20.25;65.49;99750.38;10479233;28;20101;-58
2023/08/18 23:24:06;;;;;;;6.53;2.33;;;;;;;19.94;66.07;99751.03;10478380;28;20563;-58